Argonne, Wisconsin
Current Conditions -  °F | °C
As of 3:35 AM on Saturday 29 Nov 2014 (Local Time) from KEGV Reporting Station
Haze Haze  
Wind Chill: -7°   Ceiling: 300
Heat Index: -7°   Visibility: 3mi
Dew Point: -8°   Wind: 0mph
Humidity: 98%   Direction: NA
Pressure: 29.64"   Gusts: NA
Location:  45.66°N, 88.88°W
Report Text: KEGV 290935Z AUTO 00000KT 3SM BR OVC003 M07/M08 A2964 RMK AO2 T10741076
Loading
Personal Weather Stations






























Interactive Weather Map New forecast layout! Learn more

10-Day Weather Forecast

Advertisements
Track Severe Weather on mobile